sensor_id;sensor_type;location;lat;lon;timestamp;pressure;altitude;pressure_sealevel;temperature;humidity
40708;BME280;26392;42.696;23.350;2023-03-19T00:01:17;95843.25;;;2.35;100.00
40708;BME280;26392;42.696;23.350;2023-03-19T00:03:42;95850.19;;;2.30;100.00
40708;BME280;26392;42.696;23.350;2023-03-19T00:06:08;95843.47;;;2.19;100.00
40708;BME280;26392;42.696;23.350;2023-03-19T00:08:33;95842.19;;;2.15;100.00
40708;BME280;26392;42.696;23.350;2023-03-19T00:11:05;95839.41;;;2.08;100.00
40708;BME280;26392;42.696;23.350;2023-03-19T00:13:30;95840.25;;;2.09;100.00
40708;BME280;26392;42.696;23.350;2023-03-19T00:15:56;95848.50;;;2.07;100.00
40708;BME280;26392;42.696;23.350;2023-03-19T00:18:21;95844.97;;;2.07;100.00
40708;BME280;26392;42.696;23.350;2023-03-19T00:20:47;95839.59;;;2.07;100.00
40708;BME280;26392;42.696;23.350;2023-03-19T00:23:12;95832.38;;;2.07;100.00
40708;BME280;26392;42.696;23.350;2023-03-19T00:25:37;95844.59;;;2.10;100.00
40708;BME280;26392;42.696;23.350;2023-03-19T00:28:03;95834.50;;;2.12;100.00
40708;BME280;26392;42.696;23.350;2023-03-19T00:30:28;95829.50;;;2.09;100.00
40708;BME280;26392;42.696;23.350;2023-03-19T00:32:54;95831.34;;;2.08;100.00
40708;BME280;26392;42.696;23.350;2023-03-19T00:35:19;95826.25;;;2.13;100.00
40708;BME280;26392;42.696;23.350;2023-03-19T00:37:44;95829.94;;;2.12;100.00
40708;BME280;26392;42.696;23.350;2023-03-19T00:40:10;95824.94;;;2.09;100.00
40708;BME280;26392;42.696;23.350;2023-03-19T00:42:36;95824.69;;;2.04;100.00
40708;BME280;26392;42.696;23.350;2023-03-19T00:45:02;95819.25;;;1.97;100.00
40708;BME280;26392;42.696;23.350;2023-03-19T00:47:27;95816.66;;;1.89;100.00
40708;BME280;26392;42.696;23.350;2023-03-19T00:49:53;95803.72;;;1.78;100.00
40708;BME280;26392;42.696;23.350;2023-03-19T00:52:18;95818.69;;;1.87;100.00
40708;BME280;26392;42.696;23.350;2023-03-19T00:54:44;95817.41;;;1.83;100.00
40708;BME280;26392;42.696;23.350;2023-03-19T00:57:09;95819.75;;;1.56;100.00
40708;BME280;26392;42.696;23.350;2023-03-19T00:59:35;95803.66;;;1.42;100.00
40708;BME280;26392;42.696;23.350;2023-03-19T01:02:01;95815.78;;;1.52;100.00
40708;BME280;26392;42.696;23.350;2023-03-19T01:04:26;95812.47;;;1.36;100.00
40708;BME280;26392;42.696;23.350;2023-03-19T01:06:52;95808.03;;;1.28;100.00
40708;BME280;26392;42.696;23.350;2023-03-19T01:09:17;95807.03;;;1.29;100.00
40708;BME280;26392;42.696;23.350;2023-03-19T01:11:43;95811.00;;;1.33;100.00
40708;BME280;26392;42.696;23.350;2023-03-19T01:14:08;95805.16;;;1.44;100.00
40708;BME280;26392;42.696;23.350;2023-03-19T01:16:34;95791.47;;;1.24;100.00
40708;BME280;26392;42.696;23.350;2023-03-19T01:19:00;95797.41;;;1.34;100.00
40708;BME280;26392;42.696;23.350;2023-03-19T01:21:26;95806.38;;;1.27;100.00
40708;BME280;26392;42.696;23.350;2023-03-19T01:23:55;95805.06;;;1.23;100.00
40708;BME280;26392;42.696;23.350;2023-03-19T01:26:21;95799.84;;;1.06;100.00
40708;BME280;26392;42.696;23.350;2023-03-19T01:28:47;95799.22;;;1.04;100.00
40708;BME280;26392;42.696;23.350;2023-03-19T01:31:12;95800.34;;;1.10;100.00
40708;BME280;26392;42.696;23.350;2023-03-19T01:33:38;95791.19;;;1.04;100.00
40708;BME280;26392;42.696;23.350;2023-03-19T01:36:03;95789.19;;;0.83;100.00
40708;BME280;26392;42.696;23.350;2023-03-19T01:38:30;95796.13;;;0.78;100.00
40708;BME280;26392;42.696;23.350;2023-03-19T01:40:56;95794.25;;;0.63;100.00
40708;BME280;26392;42.696;23.350;2023-03-19T01:43:23;95791.28;;;0.58;100.00
40708;BME280;26392;42.696;23.350;2023-03-19T01:45:51;95793.44;;;0.78;100.00
40708;BME280;26392;42.696;23.350;2023-03-19T01:48:41;95795.59;;;0.82;100.00
40708;BME280;26392;42.696;23.350;2023-03-19T01:51:09;95780.47;;;0.66;100.00
40708;BME280;26392;42.696;23.350;2023-03-19T01:53:36;95800.00;;;0.75;100.00
40708;BME280;26392;42.696;23.350;2023-03-19T01:56:34;95803.06;;;0.72;100.00
40708;BME280;26392;42.696;23.350;2023-03-19T01:59:08;95804.38;;;0.76;100.00
40708;BME280;26392;42.696;23.350;2023-03-19T02:01:39;95801.41;;;0.71;100.00
40708;BME280;26392;42.696;23.350;2023-03-19T02:04:07;95808.25;;;0.74;100.00
40708;BME280;26392;42.696;23.350;2023-03-19T02:06:34;95800.22;;;0.74;100.00
40708;BME280;26392;42.696;23.350;2023-03-19T02:09:00;95811.41;;;0.77;100.00
40708;BME280;26392;42.696;23.350;2023-03-19T02:11:27;95806.91;;;0.93;100.00
40708;BME280;26392;42.696;23.350;2023-03-19T02:13:55;95802.75;;;0.90;100.00
40708;BME280;26392;42.696;23.350;2023-03-19T02:16:21;95806.41;;;0.89;100.00
40708;BME280;26392;42.696;23.350;2023-03-19T02:18:46;95802.91;;;0.88;100.00
40708;BME280;26392;42.696;23.350;2023-03-19T02:21:15;95802.25;;;0.86;100.00
40708;BME280;26392;42.696;23.350;2023-03-19T02:26:16;95805.13;;;0.70;100.00
40708;BME280;26392;42.696;23.350;2023-03-19T02:28:45;95804.88;;;0.57;100.00
40708;BME280;26392;42.696;23.350;2023-03-19T02:31:12;95805.63;;;0.51;100.00
40708;BME280;26392;42.696;23.350;2023-03-19T02:33:38;95804.00;;;0.41;100.00
40708;BME280;26392;42.696;23.350;2023-03-19T02:36:05;95795.31;;;0.39;100.00
40708;BME280;26392;42.696;23.350;2023-03-19T02:38:33;95805.03;;;0.40;100.00
40708;BME280;26392;42.696;23.350;2023-03-19T02:41:01;95808.09;;;0.52;100.00
40708;BME280;26392;42.696;23.350;2023-03-19T02:43:30;95800.81;;;0.61;100.00
40708;BME280;26392;42.696;23.350;2023-03-19T02:45:56;95808.63;;;0.71;100.00
40708;BME280;26392;42.696;23.350;2023-03-19T02:48:22;95811.59;;;0.76;100.00
40708;BME280;26392;42.696;23.350;2023-03-19T02:50:47;95808.06;;;0.75;100.00
40708;BME280;26392;42.696;23.350;2023-03-19T02:53:13;95812.78;;;0.73;100.00
40708;BME280;26392;42.696;23.350;2023-03-19T02:55:40;95812.97;;;0.72;100.00
40708;BME280;26392;42.696;23.350;2023-03-19T02:58:05;95819.34;;;0.71;100.00
40708;BME280;26392;42.696;23.350;2023-03-19T03:00:31;95809.91;;;0.75;100.00
40708;BME280;26392;42.696;23.350;2023-03-19T03:02:57;95819.06;;;0.65;100.00
40708;BME280;26392;42.696;23.350;2023-03-19T03:05:22;95821.91;;;0.64;100.00
40708;BME280;26392;42.696;23.350;2023-03-19T03:07:48;95812.28;;;0.55;100.00
40708;BME280;26392;42.696;23.350;2023-03-19T03:10:14;95821.44;;;0.60;100.00
40708;BME280;26392;42.696;23.350;2023-03-19T03:12:39;95812.44;;;0.53;100.00
40708;BME280;26392;42.696;23.350;2023-03-19T03:15:06;95831.56;;;0.50;100.00
40708;BME280;26392;42.696;23.350;2023-03-19T03:17:35;95827.97;;;0.43;100.00
40708;BME280;26392;42.696;23.350;2023-03-19T03:20:03;95830.03;;;0.33;100.00
40708;BME280;26392;42.696;23.350;2023-03-19T03:22:28;95835.03;;;0.36;100.00
40708;BME280;26392;42.696;23.350;2023-03-19T03:24:54;95827.09;;;0.19;100.00
40708;BME280;26392;42.696;23.350;2023-03-19T03:27:20;95829.97;;;0.18;100.00
40708;BME280;26392;42.696;23.350;2023-03-19T03:29:45;95837.41;;;0.08;100.00
40708;BME280;26392;42.696;23.350;2023-03-19T03:32:11;95842.28;;;0.04;100.00
40708;BME280;26392;42.696;23.350;2023-03-19T03:34:36;95836.28;;;0.02;100.00
40708;BME280;26392;42.696;23.350;2023-03-19T03:37:02;95833.78;;;0.01;100.00
40708;BME280;26392;42.696;23.350;2023-03-19T03:39:27;95838.47;;;-0.02;100.00
40708;BME280;26392;42.696;23.350;2023-03-19T03:41:53;95845.28;;;0.09;100.00
40708;BME280;26392;42.696;23.350;2023-03-19T03:44:18;95840.69;;;-0.05;100.00
40708;BME280;26392;42.696;23.350;2023-03-19T03:46:43;95842.13;;;-0.26;100.00
40708;BME280;26392;42.696;23.350;2023-03-19T03:49:09;95849.53;;;-0.36;100.00
40708;BME280;26392;42.696;23.350;2023-03-19T03:51:34;95851.41;;;-0.36;100.00
40708;BME280;26392;42.696;23.350;2023-03-19T03:54:00;95846.22;;;-0.46;100.00
40708;BME280;26392;42.696;23.350;2023-03-19T03:56:26;95850.53;;;-0.37;100.00
40708;BME280;26392;42.696;23.350;2023-03-19T03:58:51;95847.66;;;-0.27;100.00
40708;BME280;26392;42.696;23.350;2023-03-19T04:01:17;95847.06;;;-0.14;100.00
40708;BME280;26392;42.696;23.350;2023-03-19T04:03:43;95842.00;;;-0.32;100.00
40708;BME280;26392;42.696;23.350;2023-03-19T04:06:15;95850.72;;;-0.38;100.00
40708;BME280;26392;42.696;23.350;2023-03-19T04:08:41;95845.13;;;-0.29;100.00
40708;BME280;26392;42.696;23.350;2023-03-19T04:11:07;95843.66;;;-0.31;100.00
40708;BME280;26392;42.696;23.350;2023-03-19T04:13:33;95835.97;;;-0.34;100.00
40708;BME280;26392;42.696;23.350;2023-03-19T04:16:05;95840.50;;;-0.35;100.00
40708;BME280;26392;42.696;23.350;2023-03-19T04:18:31;95830.44;;;-0.33;100.00
40708;BME280;26392;42.696;23.350;2023-03-19T04:20:56;95837.94;;;-0.28;100.00
40708;BME280;26392;42.696;23.350;2023-03-19T04:23:23;95834.44;;;-0.29;100.00
40708;BME280;26392;42.696;23.350;2023-03-19T04:25:48;95839.78;;;-0.29;100.00
40708;BME280;26392;42.696;23.350;2023-03-19T04:28:14;95838.63;;;-0.34;100.00
40708;BME280;26392;42.696;23.350;2023-03-19T04:30:40;95841.63;;;-0.29;100.00
40708;BME280;26392;42.696;23.350;2023-03-19T04:33:07;95847.06;;;-0.14;100.00
40708;BME280;26392;42.696;23.350;2023-03-19T04:35:33;95845.72;;;-0.10;100.00
40708;BME280;26392;42.696;23.350;2023-03-19T04:37:58;95850.72;;;-0.07;100.00
40708;BME280;26392;42.696;23.350;2023-03-19T04:40:24;95855.72;;;-0.04;100.00
40708;BME280;26392;42.696;23.350;2023-03-19T04:42:49;95854.97;;;0.10;100.00
40708;BME280;26392;42.696;23.350;2023-03-19T04:45:15;95853.63;;;0.14;100.00
40708;BME280;26392;42.696;23.350;2023-03-19T04:47:40;95856.13;;;0.16;100.00
40708;BME280;26392;42.696;23.350;2023-03-19T04:50:07;95855.03;;;0.02;100.00
40708;BME280;26392;42.696;23.350;2023-03-19T04:52:33;95850.50;;;0.03;100.00
40708;BME280;26392;42.696;23.350;2023-03-19T04:54:59;95851.47;;;0.10;100.00
40708;BME280;26392;42.696;23.350;2023-03-19T04:57:24;95851.94;;;0.13;100.00
40708;BME280;26392;42.696;23.350;2023-03-19T04:59:50;95854.09;;;0.18;100.00
40708;BME280;26392;42.696;23.350;2023-03-19T05:02:15;95844.50;;;0.24;100.00
40708;BME280;26392;42.696;23.350;2023-03-19T05:04:41;95845.00;;;0.27;100.00
40708;BME280;26392;42.696;23.350;2023-03-19T05:07:06;95854.94;;;0.41;100.00
40708;BME280;26392;42.696;23.350;2023-03-19T05:09:32;95852.84;;;0.52;100.00
40708;BME280;26392;42.696;23.350;2023-03-19T05:11:57;95859.09;;;0.44;100.00
40708;BME280;26392;42.696;23.350;2023-03-19T05:14:23;95860.13;;;0.43;100.00
40708;BME280;26392;42.696;23.350;2023-03-19T05:16:49;95854.81;;;0.35;100.00
40708;BME280;26392;42.696;23.350;2023-03-19T05:19:14;95854.72;;;0.51;100.00
40708;BME280;26392;42.696;23.350;2023-03-19T05:21:40;95856.84;;;0.56;100.00
40708;BME280;26392;42.696;23.350;2023-03-19T05:24:05;95858.56;;;0.72;100.00
40708;BME280;26392;42.696;23.350;2023-03-19T05:26:31;95861.53;;;0.77;100.00
40708;BME280;26392;42.696;23.350;2023-03-19T05:28:57;95851.84;;;0.76;100.00
40708;BME280;26392;42.696;23.350;2023-03-19T05:31:22;95856.56;;;0.88;100.00
40708;BME280;26392;42.696;23.350;2023-03-19T05:33:47;95862.41;;;0.92;100.00
40708;BME280;26392;42.696;23.350;2023-03-19T05:36:13;95866.94;;;0.92;100.00
40708;BME280;26392;42.696;23.350;2023-03-19T05:38:39;95859.44;;;0.87;100.00
40708;BME280;26392;42.696;23.350;2023-03-19T05:41:06;95859.22;;;0.74;100.00
40708;BME280;26392;42.696;23.350;2023-03-19T05:43:31;95865.56;;;0.73;100.00
40708;BME280;26392;42.696;23.350;2023-03-19T05:45:57;95860.78;;;0.68;100.00
40708;BME280;26392;42.696;23.350;2023-03-19T05:48:23;95860.50;;;0.78;100.00
40708;BME280;26392;42.696;23.350;2023-03-19T05:50:49;95865.34;;;0.82;100.00
40708;BME280;26392;42.696;23.350;2023-03-19T05:53:14;95869.44;;;0.93;100.00
40708;BME280;26392;42.696;23.350;2023-03-19T05:55:40;95853.78;;;0.82;100.00
40708;BME280;26392;42.696;23.350;2023-03-19T05:58:05;95873.06;;;1.00;100.00
40708;BME280;26392;42.696;23.350;2023-03-19T06:00:32;95857.63;;;1.02;100.00
40708;BME280;26392;42.696;23.350;2023-03-19T06:02:57;95869.38;;;1.16;100.00
40708;BME280;26392;42.696;23.350;2023-03-19T06:05:23;95864.03;;;1.16;100.00
40708;BME280;26392;42.696;23.350;2023-03-19T06:07:48;95858.38;;;1.26;100.00
40708;BME280;26392;42.696;23.350;2023-03-19T06:10:14;95857.28;;;1.35;100.00
40708;BME280;26392;42.696;23.350;2023-03-19T06:12:40;95860.72;;;1.44;100.00
40708;BME280;26392;42.696;23.350;2023-03-19T06:15:06;95862.19;;;1.46;100.00
40708;BME280;26392;42.696;23.350;2023-03-19T06:17:33;95862.72;;;1.56;100.00
40708;BME280;26392;42.696;23.350;2023-03-19T06:19:59;95863.22;;;1.60;100.00
40708;BME280;26392;42.696;23.350;2023-03-19T06:22:27;95868.75;;;1.73;100.00
40708;BME280;26392;42.696;23.350;2023-03-19T06:24:53;95858.94;;;1.81;100.00
40708;BME280;26392;42.696;23.350;2023-03-19T06:27:18;95866.34;;;1.93;100.00
40708;BME280;26392;42.696;23.350;2023-03-19T06:29:43;95867.63;;;1.97;100.00
40708;BME280;26392;42.696;23.350;2023-03-19T06:32:09;95865.97;;;1.96;100.00
40708;BME280;26392;42.696;23.350;2023-03-19T06:34:35;95871.09;;;2.13;100.00
40708;BME280;26392;42.696;23.350;2023-03-19T06:37:00;95869.59;;;2.25;100.00
40708;BME280;26392;42.696;23.350;2023-03-19T06:39:26;95868.69;;;2.18;100.00
40708;BME280;26392;42.696;23.350;2023-03-19T06:41:52;95879.22;;;2.34;100.00
40708;BME280;26392;42.696;23.350;2023-03-19T06:44:17;95871.56;;;2.53;100.00
40708;BME280;26392;42.696;23.350;2023-03-19T06:46:43;95877.19;;;2.79;100.00
40708;BME280;26392;42.696;23.350;2023-03-19T06:49:09;95890.13;;;2.90;100.00
40708;BME280;26392;42.696;23.350;2023-03-19T06:51:34;95888.59;;;3.03;100.00
40708;BME280;26392;42.696;23.350;2023-03-19T06:54:00;95900.22;;;3.10;100.00
40708;BME280;26392;42.696;23.350;2023-03-19T06:56:25;95904.59;;;3.11;100.00
40708;BME280;26392;42.696;23.350;2023-03-19T06:58:51;95899.16;;;3.04;100.00
40708;BME280;26392;42.696;23.350;2023-03-19T07:01:16;95895.34;;;3.20;100.00
40708;BME280;26392;42.696;23.350;2023-03-19T07:03:43;95888.41;;;3.32;100.00
40708;BME280;26392;42.696;23.350;2023-03-19T07:06:10;95899.91;;;3.48;100.00
40708;BME280;26392;42.696;23.350;2023-03-19T07:08:36;95889.56;;;3.51;97.94
40708;BME280;26392;42.696;23.350;2023-03-19T07:11:05;95890.69;;;3.64;95.63
40708;BME280;26392;42.696;23.350;2023-03-19T07:13:32;95892.63;;;3.76;94.56
40708;BME280;26392;42.696;23.350;2023-03-19T07:15:58;95893.28;;;3.78;92.82
40708;BME280;26392;42.696;23.350;2023-03-19T07:18:24;95893.78;;;3.95;91.97
40708;BME280;26392;42.696;23.350;2023-03-19T07:20:50;95898.63;;;4.13;88.54
40708;BME280;26392;42.696;23.350;2023-03-19T07:23:17;95895.94;;;4.13;86.33
40708;BME280;26392;42.696;23.350;2023-03-19T07:25:43;95888.13;;;4.32;86.88
40708;BME280;26392;42.696;23.350;2023-03-19T07:28:08;95893.56;;;4.45;85.86
40708;BME280;26392;42.696;23.350;2023-03-19T07:30:34;95884.44;;;4.53;82.28
40708;BME280;26392;42.696;23.350;2023-03-19T07:33:00;95882.34;;;4.41;81.06
40708;BME280;26392;42.696;23.350;2023-03-19T07:35:25;95882.50;;;4.33;81.61
40708;BME280;26392;42.696;23.350;2023-03-19T07:37:51;95884.66;;;4.51;80.79
40708;BME280;26392;42.696;23.350;2023-03-19T07:40:16;95884.69;;;4.64;79.32
40708;BME280;26392;42.696;23.350;2023-03-19T07:42:42;95874.75;;;4.71;78.66
40708;BME280;26392;42.696;23.350;2023-03-19T07:45:08;95875.81;;;4.90;78.34
40708;BME280;26392;42.696;23.350;2023-03-19T07:47:36;95882.88;;;5.18;77.21
40708;BME280;26392;42.696;23.350;2023-03-19T07:50:01;95873.72;;;4.92;75.86
40708;BME280;26392;42.696;23.350;2023-03-19T07:52:28;95887.03;;;5.14;76.34
40708;BME280;26392;42.696;23.350;2023-03-19T07:54:53;95883.50;;;5.07;75.49
40708;BME280;26392;42.696;23.350;2023-03-19T07:57:19;95882.66;;;5.26;73.94
40708;BME280;26392;42.696;23.350;2023-03-19T07:59:45;95883.72;;;5.25;73.06
40708;BME280;26392;42.696;23.350;2023-03-19T08:02:11;95878.94;;;5.21;72.64
40708;BME280;26392;42.696;23.350;2023-03-19T08:04:37;95882.47;;;5.41;71.96
40708;BME280;26392;42.696;23.350;2023-03-19T08:07:02;95882.47;;;5.41;68.73
40708;BME280;26392;42.696;23.350;2023-03-19T08:09:28;95880.56;;;5.61;68.53
40708;BME280;26392;42.696;23.350;2023-03-19T08:11:53;95880.78;;;5.60;67.90
40708;BME280;26392;42.696;23.350;2023-03-19T08:14:19;95877.03;;;5.68;68.87
40708;BME280;26392;42.696;23.350;2023-03-19T08:16:47;95878.84;;;5.87;70.41
40708;BME280;26392;42.696;23.350;2023-03-19T08:19:13;95883.44;;;6.00;66.73
40708;BME280;26392;42.696;23.350;2023-03-19T08:21:38;95883.16;;;6.21;65.67
40708;BME280;26392;42.696;23.350;2023-03-19T08:24:04;95881.25;;;6.28;64.84
40708;BME280;26392;42.696;23.350;2023-03-19T08:26:30;95866.00;;;6.41;60.09
40708;BME280;26392;42.696;23.350;2023-03-19T08:28:57;95872.44;;;6.46;60.46
40708;BME280;26392;42.696;23.350;2023-03-19T08:31:23;95866.56;;;6.49;60.77
40708;BME280;26392;42.696;23.350;2023-03-19T08:33:49;95866.31;;;6.58;59.92
40708;BME280;26392;42.696;23.350;2023-03-19T08:36:15;95871.28;;;6.67;59.63
40708;BME280;26392;42.696;23.350;2023-03-19T08:38:41;95868.09;;;6.77;60.40
40708;BME280;26392;42.696;23.350;2023-03-19T08:41:08;95870.72;;;6.90;60.40
40708;BME280;26392;42.696;23.350;2023-03-19T08:43:34;95865.22;;;7.04;58.97
40708;BME280;26392;42.696;23.350;2023-03-19T08:46:01;95866.16;;;7.16;57.66
40708;BME280;26392;42.696;23.350;2023-03-19T08:48:27;95869.88;;;7.22;59.01
40708;BME280;26392;42.696;23.350;2023-03-19T08:50:58;95859.28;;;7.20;58.02
40708;BME280;26392;42.696;23.350;2023-03-19T08:53:24;95855.72;;;7.20;58.35
40708;BME280;26392;42.696;23.350;2023-03-19T08:55:53;95851.72;;;7.47;55.64
40708;BME280;26392;42.696;23.350;2023-03-19T08:58:19;95853.16;;;7.50;55.24
40708;BME280;26392;42.696;23.350;2023-03-19T09:00:45;95848.41;;;7.70;53.92
40708;BME280;26392;42.696;23.350;2023-03-19T09:03:11;95838.28;;;7.77;54.08
40708;BME280;26392;42.696;23.350;2023-03-19T09:05:36;95835.88;;;8.06;54.03
40708;BME280;26392;42.696;23.350;2023-03-19T09:08:02;95823.22;;;8.18;51.70
40708;BME280;26392;42.696;23.350;2023-03-19T09:10:27;95821.56;;;8.17;52.71
40708;BME280;26392;42.696;23.350;2023-03-19T09:12:53;95823.44;;;8.35;53.10
40708;BME280;26392;42.696;23.350;2023-03-19T09:15:18;95821.41;;;8.49;51.40
40708;BME280;26392;42.696;23.350;2023-03-19T09:17:44;95822.88;;;8.63;49.04
40708;BME280;26392;42.696;23.350;2023-03-19T09:20:10;95810.59;;;8.61;48.07
40708;BME280;26392;42.696;23.350;2023-03-19T09:22:35;95814.78;;;8.75;47.04
40708;BME280;26392;42.696;23.350;2023-03-19T09:25:01;95821.16;;;8.81;46.39
40708;BME280;26392;42.696;23.350;2023-03-19T09:27:26;95817.50;;;8.87;47.67
40708;BME280;26392;42.696;23.350;2023-03-19T09:29:53;95814.97;;;9.04;45.79
40708;BME280;26392;42.696;23.350;2023-03-19T09:32:18;95810.97;;;9.18;44.14
40708;BME280;26392;42.696;23.350;2023-03-19T09:34:43;95818.34;;;9.41;44.50
40708;BME280;26392;42.696;23.350;2023-03-19T09:37:09;95813.72;;;9.53;44.98
40708;BME280;26392;42.696;23.350;2023-03-19T09:39:36;95808.75;;;9.74;44.72
40708;BME280;26392;42.696;23.350;2023-03-19T09:44:36;95805.78;;;9.87;45.01
40708;BME280;26392;42.696;23.350;2023-03-19T09:47:30;95809.09;;;9.89;44.85
40708;BME280;26392;42.696;23.350;2023-03-19T09:50:05;95814.53;;;9.89;44.90
40708;BME280;26392;42.696;23.350;2023-03-19T09:52:51;95799.97;;;9.95;44.16
40708;BME280;26392;42.696;23.350;2023-03-19T09:55:34;95804.25;;;9.79;43.82
40708;BME280;26392;42.696;23.350;2023-03-19T09:58:10;95795.81;;;9.93;44.08
40708;BME280;26392;42.696;23.350;2023-03-19T10:00:37;95791.41;;;10.15;44.09
40708;BME280;26392;42.696;23.350;2023-03-19T10:06:24;95791.91;;;10.52;43.55
40708;BME280;26392;42.696;23.350;2023-03-19T10:17:24;95770.25;;;10.74;41.93
40708;BME280;26392;42.696;23.350;2023-03-19T10:20:02;95776.50;;;10.75;42.30
40708;BME280;26392;42.696;23.350;2023-03-19T10:23:22;95770.09;;;10.81;41.12
40708;BME280;26392;42.696;23.350;2023-03-19T10:25:53;95768.28;;;10.87;41.36
40708;BME280;26392;42.696;23.350;2023-03-19T10:28:20;95762.19;;;10.96;41.12
40708;BME280;26392;42.696;23.350;2023-03-19T10:30:58;95739.22;;;11.09;40.96
40708;BME280;26392;42.696;23.350;2023-03-19T10:36:21;95743.50;;;11.22;41.62
40708;BME280;26392;42.696;23.350;2023-03-19T10:38:50;95740.59;;;11.46;41.02
40708;BME280;26392;42.696;23.350;2023-03-19T10:44:06;95736.22;;;11.45;41.14
40708;BME280;26392;42.696;23.350;2023-03-19T10:46:39;95716.25;;;11.61;41.22
40708;BME280;26392;42.696;23.350;2023-03-19T10:49:11;95709.41;;;11.80;40.58
40708;BME280;26392;42.696;23.350;2023-03-19T10:51:37;95701.91;;;11.88;40.68
40708;BME280;26392;42.696;23.350;2023-03-19T10:54:17;95708.75;;;12.12;40.10
40708;BME280;26392;42.696;23.350;2023-03-19T10:56:45;95702.31;;;12.23;39.12
40708;BME280;26392;42.696;23.350;2023-03-19T10:59:30;95694.47;;;12.32;38.76
40708;BME280;26392;42.696;23.350;2023-03-19T11:02:00;95689.19;;;12.47;38.60
40708;BME280;26392;42.696;23.350;2023-03-19T11:04:26;95683.47;;;12.49;38.63
40708;BME280;26392;42.696;23.350;2023-03-19T11:07:09;95680.25;;;12.57;39.62
40708;BME280;26392;42.696;23.350;2023-03-19T11:09:36;95680.13;;;12.69;39.70
40708;BME280;26392;42.696;23.350;2023-03-19T11:12:21;95682.69;;;12.81;39.32
40708;BME280;26392;42.696;23.350;2023-03-19T11:14:55;95662.72;;;12.80;39.37
40708;BME280;26392;42.696;23.350;2023-03-19T11:19:55;95655.25;;;13.03;38.63
40708;BME280;26392;42.696;23.350;2023-03-19T11:22:27;95658.63;;;13.20;38.72
40708;BME280;26392;42.696;23.350;2023-03-19T11:24:59;95644.75;;;13.27;38.40
40708;BME280;26392;42.696;23.350;2023-03-19T11:27:31;95650.78;;;13.29;38.33
40708;BME280;26392;42.696;23.350;2023-03-19T11:29:59;95645.88;;;13.36;37.87
40708;BME280;26392;42.696;23.350;2023-03-19T11:35:20;95628.97;;;13.44;38.17
40708;BME280;26392;42.696;23.350;2023-03-19T11:37:56;95631.75;;;13.49;38.42
40708;BME280;26392;42.696;23.350;2023-03-19T11:45:31;95611.50;;;13.50;38.61
40708;BME280;26392;42.696;23.350;2023-03-19T11:50:48;95608.25;;;13.58;37.97
40708;BME280;26392;42.696;23.350;2023-03-19T11:53:41;95606.56;;;13.47;38.91
40708;BME280;26392;42.696;23.350;2023-03-19T12:02:30;95601.28;;;13.98;37.49
40708;BME280;26392;42.696;23.350;2023-03-19T12:05:07;95597.44;;;13.94;37.72
40708;BME280;26392;42.696;23.350;2023-03-19T12:10:43;95588.72;;;14.13;38.02
40708;BME280;26392;42.696;23.350;2023-03-19T12:19:14;95578.38;;;14.66;37.62
40708;BME280;26392;42.696;23.350;2023-03-19T12:33:40;95566.84;;;14.94;36.63
40708;BME280;26392;42.696;23.350;2023-03-19T12:35:48;95560.28;;;14.85;36.77
40708;BME280;26392;42.696;23.350;2023-03-19T12:40:58;95549.84;;;14.87;37.03
40708;BME280;26392;42.696;23.350;2023-03-19T12:46:36;95543.75;;;15.16;36.38
40708;BME280;26392;42.696;23.350;2023-03-19T12:49:44;95549.81;;;15.18;36.60
40708;BME280;26392;42.696;23.350;2023-03-19T12:52:21;95544.03;;;15.14;36.79
40708;BME280;26392;42.696;23.350;2023-03-19T12:55:08;95542.91;;;15.20;36.59
40708;BME280;26392;42.696;23.350;2023-03-19T13:00:25;95532.72;;;15.31;36.58
40708;BME280;26392;42.696;23.350;2023-03-19T13:05:45;95532.69;;;15.41;36.17
40708;BME280;26392;42.696;23.350;2023-03-19T13:08:35;95518.63;;;15.53;35.92
40708;BME280;26392;42.696;23.350;2023-03-19T13:11:05;95527.69;;;15.54;36.41
40708;BME280;26392;42.696;23.350;2023-03-19T13:13:48;95520.25;;;15.59;36.14
40708;BME280;26392;42.696;23.350;2023-03-19T13:21:46;95509.81;;;15.61;35.88
40708;BME280;26392;42.696;23.350;2023-03-19T13:24:30;95512.56;;;15.56;35.93
40708;BME280;26392;42.696;23.350;2023-03-19T13:26:59;95514.16;;;15.67;36.01
40708;BME280;26392;42.696;23.350;2023-03-19T13:29:30;95507.78;;;15.87;35.46
40708;BME280;26392;42.696;23.350;2023-03-19T13:32:00;95501.16;;;15.94;35.73
40708;BME280;26392;42.696;23.350;2023-03-19T13:34:28;95495.28;;;16.10;35.43
40708;BME280;26392;42.696;23.350;2023-03-19T13:39:30;95495.66;;;15.94;35.66
40708;BME280;26392;42.696;23.350;2023-03-19T13:42:08;95494.53;;;16.00;35.28
40708;BME280;26392;42.696;23.350;2023-03-19T13:44:59;95495.03;;;16.02;34.84
40708;BME280;26392;42.696;23.350;2023-03-19T13:52:44;95484.69;;;16.28;34.73
40708;BME280;26392;42.696;23.350;2023-03-19T13:55:27;95487.06;;;16.40;34.76
40708;BME280;26392;42.696;23.350;2023-03-19T13:58:13;95479.84;;;16.49;34.40
40708;BME280;26392;42.696;23.350;2023-03-19T14:01:04;95481.72;;;16.53;34.71
40708;BME280;26392;42.696;23.350;2023-03-19T14:03:32;95474.84;;;16.56;34.42
40708;BME280;26392;42.696;23.350;2023-03-19T14:05:59;95475.88;;;16.60;34.37
40708;BME280;26392;42.696;23.350;2023-03-19T14:08:31;95471.94;;;16.71;34.12
40708;BME280;26392;42.696;23.350;2023-03-19T14:11:00;95470.00;;;16.72;34.17
40708;BME280;26392;42.696;23.350;2023-03-19T14:16:04;95471.91;;;16.76;34.54
40708;BME280;26392;42.696;23.350;2023-03-19T14:18:30;95477.88;;;16.54;34.98
40708;BME280;26392;42.696;23.350;2023-03-19T14:21:03;95472.63;;;16.58;34.93
40708;BME280;26392;42.696;23.350;2023-03-19T14:23:29;95460.09;;;16.47;34.59
40708;BME280;26392;42.696;23.350;2023-03-19T14:31:04;95456.13;;;16.58;34.66